createdAt,value
2022-12-09T00:00:37.022Z,0.00
2022-12-09T00:01:37.052Z,0.00
2022-12-09T00:02:37.327Z,0.00
2022-12-09T00:03:37.135Z,0.00
2022-12-09T00:04:37.100Z,0.00
2022-12-09T00:05:36.948Z,0.00
2022-12-09T00:06:36.884Z,0.00
2022-12-09T00:07:36.996Z,0.00
2022-12-09T00:08:37.038Z,0.00
2022-12-09T00:09:37.146Z,0.00
2022-12-09T00:10:36.879Z,0.00
2022-12-09T00:11:37.075Z,0.00
2022-12-09T00:12:36.955Z,0.00
2022-12-09T00:13:36.961Z,0.00
2022-12-09T00:14:36.892Z,0.00
2022-12-09T00:15:36.891Z,0.00
2022-12-09T00:16:36.868Z,0.00
2022-12-09T00:17:36.907Z,0.00
2022-12-09T00:18:36.758Z,0.00
2022-12-09T00:19:36.766Z,0.00
2022-12-09T00:20:36.876Z,0.00
2022-12-09T00:21:36.803Z,0.00
2022-12-09T00:22:36.945Z,0.00
2022-12-09T00:23:36.826Z,0.00
2022-12-09T00:24:36.874Z,0.00
2022-12-09T00:25:36.902Z,0.00
2022-12-09T00:26:36.715Z,0.00
2022-12-09T00:27:36.717Z,0.00
2022-12-09T00:28:36.632Z,0.00
2022-12-09T00:29:36.901Z,0.00
2022-12-09T00:30:36.627Z,0.00
2022-12-09T00:31:36.814Z,0.00
2022-12-09T00:32:36.653Z,0.00
2022-12-09T00:33:36.638Z,0.00
2022-12-09T00:34:36.792Z,0.00
2022-12-09T00:35:36.773Z,0.00
2022-12-09T00:36:36.804Z,0.00
2022-12-09T00:37:36.551Z,0.00
2022-12-09T00:38:36.789Z,0.00
2022-12-09T00:39:36.536Z,0.00
2022-12-09T00:40:36.537Z,0.00
2022-12-09T00:41:36.696Z,0.00
2022-12-09T00:42:36.709Z,0.00
2022-12-09T00:43:36.481Z,0.00
2022-12-09T00:44:36.493Z,0.00
2022-12-09T00:45:36.506Z,0.00
2022-12-09T00:46:36.541Z,0.00
2022-12-09T00:47:36.708Z,0.00
2022-12-09T00:48:36.420Z,0.00
2022-12-09T00:49:36.676Z,0.00
2022-12-09T00:50:36.411Z,0.00
2022-12-09T00:51:36.420Z,0.00
2022-12-09T00:52:36.413Z,0.00
2022-12-09T00:53:36.386Z,0.00
2022-12-09T00:54:36.655Z,0.00
2022-12-09T00:55:36.443Z,0.00
2022-12-09T00:56:36.336Z,0.00
2022-12-09T00:57:36.472Z,0.00
2022-12-09T00:58:36.358Z,0.00
2022-12-09T00:59:36.510Z,0.00
2022-12-09T01:00:36.346Z,0.00
2022-12-09T01:01:36.473Z,0.00
2022-12-09T01:02:36.388Z,0.00
2022-12-09T01:03:36.511Z,0.00
2022-12-09T01:04:36.497Z,0.00
2022-12-09T01:05:36.364Z,0.00
2022-12-09T01:06:36.240Z,0.00
2022-12-09T01:07:36.389Z,0.00
2022-12-09T01:08:38.911Z,0.00
2022-12-09T01:09:36.311Z,0.00
2022-12-09T01:10:36.376Z,0.00
2022-12-09T01:11:36.267Z,0.00
2022-12-09T01:12:36.165Z,0.00
2022-12-09T01:13:36.131Z,0.00
2022-12-09T01:14:36.155Z,0.00
2022-12-09T01:15:36.286Z,0.00
2022-12-09T01:16:36.408Z,0.00
2022-12-09T01:17:36.266Z,0.00
2022-12-09T01:18:36.094Z,0.00
2022-12-09T01:19:36.106Z,0.00
2022-12-09T01:20:36.295Z,0.00
2022-12-09T01:21:36.155Z,0.00
2022-12-09T01:22:36.049Z,0.00
2022-12-09T01:23:36.057Z,0.00
2022-12-09T01:24:36.144Z,0.00
2022-12-09T01:25:36.023Z,0.00
2022-12-09T01:26:36.317Z,0.00
2022-12-09T01:27:36.066Z,0.00
2022-12-09T01:28:35.999Z,0.00
2022-12-09T01:29:36.158Z,0.00
2022-12-09T01:30:36.028Z,0.00
2022-12-09T01:31:36.251Z,0.00
2022-12-09T01:32:36.066Z,0.00
2022-12-09T01:33:36.164Z,0.00
2022-12-09T01:34:35.946Z,0.00
2022-12-09T01:35:36.003Z,0.00
2022-12-09T01:36:36.228Z,0.00
2022-12-09T01:37:36.120Z,0.00
2022-12-09T01:38:35.920Z,0.00
2022-12-09T01:39:36.225Z,0.00
2022-12-09T01:40:35.837Z,0.00
2022-12-09T01:41:35.973Z,0.00
2022-12-09T01:42:36.111Z,0.00
2022-12-09T01:43:35.894Z,0.00
2022-12-09T01:44:35.873Z,0.00
2022-12-09T01:45:35.855Z,0.00
2022-12-09T01:46:35.912Z,0.00
2022-12-09T01:47:35.893Z,0.00
2022-12-09T01:48:35.789Z,0.00
2022-12-09T01:49:35.773Z,0.00
2022-12-09T01:50:36.095Z,0.00
2022-12-09T01:51:36.033Z,0.00
2022-12-09T01:52:35.816Z,0.00
2022-12-09T01:53:36.035Z,0.00
2022-12-09T01:54:35.887Z,0.00
2022-12-09T01:55:35.705Z,0.00
2022-12-09T01:56:35.966Z,0.00
2022-12-09T01:57:35.827Z,0.00
2022-12-09T01:58:35.654Z,0.00
2022-12-09T01:59:35.778Z,0.00
2022-12-09T02:00:35.888Z,0.00
2022-12-09T02:01:35.824Z,0.00
2022-12-09T02:02:35.886Z,0.00
2022-12-09T02:03:36.178Z,0.00
2022-12-09T02:04:35.829Z,0.00
2022-12-09T02:05:35.682Z,0.00
2022-12-09T02:06:35.880Z,0.00
2022-12-09T02:07:35.648Z,0.00
2022-12-09T02:08:35.718Z,0.00
2022-12-09T02:09:35.640Z,0.00
2022-12-09T02:10:35.544Z,0.00
2022-12-09T02:11:35.813Z,0.00
2022-12-09T02:12:35.799Z,0.00
2022-12-09T02:13:35.582Z,0.00
2022-12-09T02:14:35.491Z,0.00
2022-12-09T02:15:35.669Z,0.00
2022-12-09T02:16:35.655Z,0.00
2022-12-09T02:17:35.561Z,0.00
2022-12-09T02:18:35.442Z,0.00
2022-12-09T02:19:35.553Z,0.00
2022-12-09T02:20:35.671Z,0.00
2022-12-09T02:21:35.419Z,0.00
2022-12-09T02:22:35.370Z,0.00
2022-12-09T02:23:35.672Z,0.00
2022-12-09T02:24:35.442Z,0.00
2022-12-09T02:25:35.365Z,0.00
2022-12-09T02:26:35.353Z,0.00
2022-12-09T02:27:35.341Z,0.00
2022-12-09T02:28:35.761Z,0.00
2022-12-09T02:29:35.348Z,0.00
2022-12-09T02:30:35.657Z,0.00
2022-12-09T02:31:35.789Z,0.00
2022-12-09T02:32:35.502Z,0.00
2022-12-09T02:33:35.382Z,0.00
2022-12-09T02:34:35.694Z,0.00
2022-12-09T02:35:35.365Z,0.00
2022-12-09T02:36:35.235Z,0.00
2022-12-09T02:37:35.490Z,0.00
2022-12-09T02:38:35.229Z,0.00
2022-12-09T02:39:35.411Z,0.00
2022-12-09T02:40:35.360Z,0.00
2022-12-09T02:41:35.215Z,0.00
2022-12-09T02:42:35.150Z,0.00
2022-12-09T02:43:35.485Z,0.00
2022-12-09T02:44:35.228Z,0.00
2022-12-09T02:45:35.244Z,0.00
2022-12-09T02:46:35.423Z,0.00
2022-12-09T02:47:35.200Z,0.00
2022-12-09T02:48:35.476Z,0.00
2022-12-09T02:49:35.083Z,0.00
2022-12-09T02:50:35.451Z,0.00
2022-12-09T02:51:35.337Z,0.00
2022-12-09T02:52:35.048Z,0.00
2022-12-09T02:53:35.052Z,0.00
2022-12-09T02:54:35.033Z,0.00
2022-12-09T02:55:35.010Z,0.00
2022-12-09T02:56:35.109Z,0.00
2022-12-09T02:57:35.085Z,0.00
2022-12-09T02:58:35.216Z,0.00
2022-12-09T02:59:35.059Z,0.00
2022-12-09T03:00:35.111Z,0.00
2022-12-09T03:01:35.000Z,0.00
2022-12-09T03:02:35.417Z,0.00
2022-12-09T03:03:35.206Z,0.00
2022-12-09T03:04:35.015Z,0.00
2022-12-09T03:05:34.941Z,0.00
2022-12-09T03:06:34.916Z,0.00
2022-12-09T03:07:34.889Z,0.00
2022-12-09T03:08:34.992Z,0.00
2022-12-09T03:09:35.021Z,0.00
2022-12-09T03:10:34.835Z,0.00
2022-12-09T03:11:34.937Z,0.00
2022-12-09T03:12:34.939Z,0.00
2022-12-09T03:13:35.148Z,0.00
2022-12-09T03:14:34.811Z,0.00
2022-12-09T03:15:34.823Z,0.00
2022-12-09T03:16:34.963Z,0.00
2022-12-09T03:17:35.034Z,0.00
2022-12-09T03:18:34.750Z,0.00
2022-12-09T03:19:35.033Z,0.00
2022-12-09T03:20:34.972Z,0.00
2022-12-09T03:21:34.705Z,0.00
2022-12-09T03:22:34.943Z,0.00
2022-12-09T03:23:34.983Z,0.00
2022-12-09T03:24:34.770Z,0.00
2022-12-09T03:25:35.011Z,0.00
2022-12-09T03:26:34.667Z,0.00
2022-12-09T03:27:34.652Z,0.00
2022-12-09T03:28:34.655Z,0.00
2022-12-09T03:29:34.634Z,0.00
2022-12-09T03:30:34.960Z,0.00
2022-12-09T03:31:34.742Z,0.00
2022-12-09T03:32:34.782Z,0.00
2022-12-09T03:33:34.670Z,0.00
2022-12-09T03:34:34.936Z,0.00
2022-12-09T03:35:34.973Z,0.00
2022-12-09T03:36:34.666Z,0.00
2022-12-09T03:37:34.532Z,0.00
2022-12-09T03:38:34.551Z,0.00
2022-12-09T03:39:34.536Z,0.00
2022-12-09T03:40:34.539Z,0.00
2022-12-09T03:41:34.773Z,0.00
2022-12-09T03:42:34.520Z,0.00
2022-12-09T03:43:34.475Z,0.00
2022-12-09T03:44:34.468Z,0.00
2022-12-09T03:45:34.700Z,0.00
2022-12-09T03:46:34.611Z,0.00
2022-12-09T03:47:34.902Z,0.00
2022-12-09T03:48:34.585Z,0.00
2022-12-09T03:49:34.478Z,0.00
2022-12-09T03:50:34.426Z,0.00
2022-12-09T03:51:34.597Z,0.00
2022-12-09T03:52:34.838Z,0.00
2022-12-09T03:53:34.375Z,0.00
2022-12-09T03:54:34.713Z,0.00
2022-12-09T03:55:34.573Z,0.00
2022-12-09T03:56:34.336Z,0.00
2022-12-09T03:57:34.313Z,0.00
2022-12-09T03:58:34.633Z,0.00
2022-12-09T03:59:34.307Z,0.00
2022-12-09T04:00:34.288Z,0.00
2022-12-09T04:01:34.569Z,0.00
2022-12-09T04:02:34.489Z,0.00
2022-12-09T04:03:34.714Z,0.00
2022-12-09T04:04:34.299Z,0.00
2022-12-09T04:05:34.430Z,0.00
2022-12-09T04:06:34.503Z,0.00
2022-12-09T04:07:34.236Z,0.00
2022-12-09T04:08:34.571Z,0.00
2022-12-09T04:09:34.344Z,0.00
2022-12-09T04:10:34.560Z,0.00
2022-12-09T04:11:34.361Z,0.00
2022-12-09T04:12:34.505Z,0.00
2022-12-09T04:13:34.404Z,0.00
2022-12-09T04:14:34.486Z,0.00
2022-12-09T04:15:34.132Z,0.00
2022-12-09T04:16:34.342Z,0.00
2022-12-09T04:17:34.190Z,0.00
2022-12-09T04:18:34.508Z,0.00
2022-12-09T04:19:34.093Z,0.00
2022-12-09T04:20:34.087Z,0.00
2022-12-09T04:21:34.232Z,0.00
2022-12-09T04:22:34.231Z,0.00
2022-12-09T04:23:39.269Z,0.00
2022-12-09T04:24:35.020Z,0.00
2022-12-09T04:25:34.108Z,0.00
2022-12-09T04:26:34.270Z,0.00
2022-12-09T04:27:34.016Z,0.00
2022-12-09T04:28:33.989Z,0.00
2022-12-09T04:29:34.253Z,0.00
2022-12-09T04:30:34.097Z,0.00
2022-12-09T04:31:34.276Z,0.00
2022-12-09T04:32:34.012Z,0.00
2022-12-09T04:33:33.964Z,0.00
2022-12-09T04:34:34.005Z,0.00
2022-12-09T04:35:34.196Z,0.00
2022-12-09T04:36:34.127Z,0.00
2022-12-09T04:37:34.304Z,0.00
2022-12-09T04:38:33.897Z,0.00
2022-12-09T04:39:33.888Z,0.00
2022-12-09T04:40:34.193Z,0.00
2022-12-09T04:41:33.842Z,0.00
2022-12-09T04:42:34.007Z,0.00
2022-12-09T04:43:33.816Z,0.00
2022-12-09T04:44:34.075Z,0.00
2022-12-09T04:45:33.873Z,0.00
2022-12-09T04:46:34.153Z,0.00
2022-12-09T04:47:33.852Z,0.00
2022-12-09T04:48:33.778Z,0.00
2022-12-09T04:49:33.731Z,0.00
2022-12-09T04:50:33.777Z,0.00
2022-12-09T04:51:39.375Z,0.00
2022-12-09T04:52:34.721Z,0.00
2022-12-09T04:53:33.680Z,0.00
2022-12-09T04:54:33.987Z,0.00
2022-12-09T04:55:33.678Z,0.00
2022-12-09T04:56:33.932Z,0.00
2022-12-09T04:57:34.031Z,0.00
2022-12-09T04:58:33.744Z,0.00
2022-12-09T04:59:33.719Z,0.00
2022-12-09T05:00:33.874Z,0.00
2022-12-09T05:01:33.947Z,0.00
2022-12-09T05:02:34.066Z,0.00
2022-12-09T05:03:33.853Z,0.00
2022-12-09T05:04:33.895Z,0.00
2022-12-09T05:05:33.708Z,0.00
2022-12-09T05:06:33.738Z,0.00
2022-12-09T05:07:33.704Z,0.00
2022-12-09T05:08:33.819Z,0.00
2022-12-09T05:09:33.737Z,0.00
2022-12-09T05:10:33.934Z,0.00
2022-12-09T05:11:33.814Z,0.00
2022-12-09T05:12:33.511Z,0.00
2022-12-09T05:13:33.738Z,0.00
2022-12-09T05:14:33.486Z,0.00
2022-12-09T05:15:33.661Z,0.00
2022-12-09T05:16:33.796Z,0.00
2022-12-09T05:17:33.725Z,0.00
2022-12-09T05:18:33.592Z,0.00
2022-12-09T05:19:33.438Z,0.00
2022-12-09T05:20:33.388Z,0.00
2022-12-09T05:21:33.568Z,0.00
2022-12-09T05:22:33.620Z,0.00
2022-12-09T05:23:33.459Z,0.00
2022-12-09T05:24:33.465Z,0.00
2022-12-09T05:25:33.500Z,0.00
2022-12-09T05:26:33.416Z,0.00
2022-12-09T05:27:33.412Z,0.00
2022-12-09T05:28:33.491Z,0.00
2022-12-09T05:29:33.583Z,0.00
2022-12-09T05:30:33.598Z,0.00
2022-12-09T05:31:33.511Z,0.00
2022-12-09T05:32:33.598Z,0.00
2022-12-09T05:33:33.562Z,0.00
2022-12-09T05:34:33.674Z,0.00
2022-12-09T05:35:37.645Z,0.00
2022-12-09T05:36:34.283Z,0.00
2022-12-09T05:37:33.406Z,0.00
2022-12-09T05:38:33.404Z,0.00
2022-12-09T05:39:33.289Z,0.00
2022-12-09T05:40:33.594Z,0.00
2022-12-09T05:41:33.303Z,0.00
2022-12-09T05:42:39.468Z,0.00
2022-12-09T05:43:34.535Z,0.00
2022-12-09T05:44:33.399Z,0.00
2022-12-09T05:45:33.431Z,0.00
2022-12-09T05:46:33.714Z,0.00
2022-12-09T05:47:33.346Z,0.00
2022-12-09T05:48:33.560Z,0.00
2022-12-09T05:49:33.327Z,0.00
2022-12-09T05:50:33.083Z,0.00
2022-12-09T05:51:33.063Z,0.00
2022-12-09T05:52:33.491Z,0.00
2022-12-09T05:53:33.416Z,0.00
2022-12-09T05:54:33.204Z,0.00
2022-12-09T05:55:33.346Z,0.00
2022-12-09T05:56:33.507Z,0.00
2022-12-09T05:57:33.096Z,0.00
2022-12-09T05:58:33.152Z,0.00
2022-12-09T05:59:33.339Z,0.00
2022-12-09T06:00:33.029Z,0.00
2022-12-09T06:01:33.101Z,0.00
2022-12-09T06:02:33.106Z,0.00
2022-12-09T06:03:33.155Z,0.00
2022-12-09T06:04:33.314Z,0.00
2022-12-09T06:05:33.467Z,0.00
2022-12-09T06:06:33.317Z,0.00
2022-12-09T06:07:33.261Z,0.00
2022-12-09T06:08:33.294Z,0.00
2022-12-09T06:09:33.093Z,0.00
2022-12-09T06:10:33.440Z,0.00
2022-12-09T06:11:33.424Z,0.00
2022-12-09T06:12:32.884Z,0.00
2022-12-09T06:13:32.862Z,0.00
2022-12-09T06:14:33.115Z,0.00
2022-12-09T06:15:33.726Z,0.00
2022-12-09T06:16:32.958Z,0.00
2022-12-09T06:17:32.886Z,0.00
2022-12-09T06:18:32.931Z,0.00
2022-12-09T06:19:32.923Z,0.00
2022-12-09T06:20:33.048Z,0.00
2022-12-09T06:21:32.996Z,0.00
2022-12-09T06:22:32.776Z,0.00
2022-12-09T06:23:32.770Z,0.00
2022-12-09T06:24:33.019Z,0.00
2022-12-09T06:25:32.761Z,0.00
2022-12-09T06:26:33.153Z,0.00
2022-12-09T06:27:32.691Z,0.00
2022-12-09T06:28:32.739Z,0.00
2022-12-09T06:29:32.723Z,0.00
2022-12-09T06:30:32.625Z,0.00
2022-12-09T06:31:32.722Z,0.00
2022-12-09T06:32:32.955Z,0.00
2022-12-09T06:34:01.195Z,0.00
2022-12-09T06:34:33.812Z,0.00
2022-12-09T06:35:33.022Z,0.00
2022-12-09T06:36:32.765Z,0.00
2022-12-09T06:37:32.697Z,0.00
2022-12-09T06:38:32.946Z,0.00
2022-12-09T06:39:32.600Z,0.00
2022-12-09T06:40:32.933Z,0.00
2022-12-09T06:41:33.500Z,0.00
2022-12-09T06:42:32.594Z,0.00
2022-12-09T06:43:32.859Z,0.00
2022-12-09T06:44:32.566Z,0.00
2022-12-09T06:45:32.654Z,0.00
2022-12-09T06:46:32.829Z,0.00
2022-12-09T06:47:32.790Z,0.00
2022-12-09T06:48:32.665Z,0.00
2022-12-09T06:49:32.973Z,0.00
2022-12-09T06:50:32.801Z,0.00
2022-12-09T06:51:32.629Z,0.00
2022-12-09T06:52:32.923Z,0.00
2022-12-09T06:53:32.476Z,0.00
2022-12-09T06:54:32.805Z,0.00
2022-12-09T06:55:32.468Z,0.00
2022-12-09T06:56:32.635Z,0.00
2022-12-09T06:57:32.394Z,0.00
2022-12-09T06:58:33.338Z,0.00
2022-12-09T06:59:35.235Z,0.00
2022-12-09T07:00:32.744Z,0.00
2022-12-09T07:01:34.373Z,0.00
2022-12-09T07:02:35.762Z,0.00
2022-12-09T07:03:32.807Z,0.00
2022-12-09T07:04:32.491Z,0.00
2022-12-09T07:05:32.539Z,0.00
2022-12-09T07:06:32.824Z,0.00
2022-12-09T07:07:32.430Z,0.00
2022-12-09T07:08:32.347Z,0.00
2022-12-09T07:09:32.629Z,0.00
2022-12-09T07:10:32.660Z,0.00
2022-12-09T07:11:32.673Z,0.00
2022-12-09T07:12:32.211Z,0.00
2022-12-09T07:13:32.576Z,0.00
2022-12-09T07:14:32.615Z,0.00
2022-12-09T07:15:32.255Z,0.00
2022-12-09T07:16:32.743Z,0.00
2022-12-09T07:17:32.608Z,0.00
2022-12-09T07:18:32.207Z,0.00
2022-12-09T07:19:32.316Z,0.00
2022-12-09T07:20:32.185Z,0.00
2022-12-09T07:21:32.091Z,5.62
2022-12-09T07:22:32.450Z,5.62
2022-12-09T07:23:32.018Z,5.62
2022-12-09T07:24:32.197Z,5.62
2022-12-09T07:25:32.032Z,5.62
2022-12-09T07:26:32.023Z,5.62
2022-12-09T07:27:32.153Z,5.62
2022-12-09T07:28:32.202Z,5.62
2022-12-09T07:29:32.440Z,5.62
2022-12-09T07:30:32.144Z,5.62
2022-12-09T07:31:32.069Z,5.62
2022-12-09T07:32:32.328Z,11.25
2022-12-09T07:33:32.090Z,11.25
2022-12-09T07:34:32.434Z,11.25
2022-12-09T07:35:32.354Z,11.25
2022-12-09T07:36:32.214Z,11.25
2022-12-09T07:37:32.332Z,11.25
2022-12-09T07:38:32.235Z,11.25
2022-12-09T07:39:32.323Z,11.25
2022-12-09T07:40:32.129Z,16.88
2022-12-09T07:41:32.384Z,16.88
2022-12-09T07:42:31.895Z,16.88
2022-12-09T07:43:31.793Z,16.88
2022-12-09T07:44:31.875Z,16.88
2022-12-09T07:45:32.109Z,22.50
2022-12-09T07:46:32.318Z,22.50
2022-12-09T07:47:31.971Z,22.50
2022-12-09T07:48:32.098Z,22.50
2022-12-09T07:49:31.876Z,22.50
2022-12-09T07:50:31.971Z,28.12
2022-12-09T07:51:32.024Z,28.12
2022-12-09T07:52:31.900Z,28.12
2022-12-09T07:53:32.119Z,28.12
2022-12-09T07:54:31.963Z,28.12
2022-12-09T07:55:31.890Z,33.75
2022-12-09T07:56:31.652Z,33.75
2022-12-09T07:57:31.764Z,33.75
2022-12-09T07:58:31.643Z,33.75
2022-12-09T07:59:31.817Z,39.38
2022-12-09T08:00:31.674Z,39.38
2022-12-09T08:01:31.738Z,39.38
2022-12-09T08:02:31.916Z,39.38
2022-12-09T08:03:31.967Z,45.00
2022-12-09T08:04:31.793Z,45.00
2022-12-09T08:05:31.850Z,45.00
2022-12-09T08:06:32.059Z,50.62
2022-12-09T08:07:32.055Z,50.62
2022-12-09T08:08:32.066Z,50.62
2022-12-09T08:09:32.116Z,50.62
2022-12-09T08:10:31.700Z,50.62
2022-12-09T08:11:31.879Z,50.62
2022-12-09T08:12:31.973Z,50.62
2022-12-09T08:13:31.710Z,50.62
2022-12-09T08:14:31.581Z,50.62
2022-12-09T08:15:31.626Z,50.62
2022-12-09T08:16:31.948Z,50.62
2022-12-09T08:17:31.833Z,56.25
2022-12-09T08:18:31.878Z,56.25
2022-12-09T08:19:31.605Z,56.25
2022-12-09T08:20:31.789Z,56.25
2022-12-09T08:21:31.860Z,56.25
2022-12-09T08:22:31.808Z,56.25
2022-12-09T08:23:31.581Z,56.25
2022-12-09T08:24:31.415Z,56.25
2022-12-09T08:25:32.308Z,56.25
2022-12-09T08:26:31.652Z,56.25
2022-12-09T08:27:31.752Z,56.25
2022-12-09T08:28:32.337Z,56.25
2022-12-09T08:29:31.383Z,56.25
2022-12-09T08:30:31.611Z,56.25
2022-12-09T08:31:35.621Z,61.88
2022-12-09T08:32:32.703Z,56.25
2022-12-09T08:33:31.363Z,56.25
2022-12-09T08:34:31.739Z,56.25
2022-12-09T08:35:31.321Z,56.25
2022-12-09T08:36:31.294Z,56.25
2022-12-09T08:37:31.591Z,56.25
2022-12-09T08:38:31.374Z,56.25
2022-12-09T08:39:31.395Z,61.88
2022-12-09T08:40:31.694Z,61.88
2022-12-09T08:41:31.196Z,61.88
2022-12-09T08:42:31.207Z,61.88
2022-12-09T08:43:31.334Z,61.88
2022-12-09T08:44:31.231Z,61.88
2022-12-09T08:45:31.482Z,61.88
2022-12-09T08:46:31.638Z,61.88
2022-12-09T08:47:31.247Z,67.50
2022-12-09T08:48:31.372Z,67.50
2022-12-09T08:49:31.498Z,67.50
2022-12-09T08:50:31.160Z,67.50
2022-12-09T08:51:31.179Z,67.50
2022-12-09T08:52:34.585Z,67.50
2022-12-09T08:53:32.274Z,67.50
2022-12-09T08:54:31.426Z,67.50
2022-12-09T08:55:31.236Z,73.12
2022-12-09T08:56:31.371Z,73.12
2022-12-09T08:57:31.377Z,73.12
2022-12-09T08:58:31.435Z,73.12
2022-12-09T08:59:31.069Z,73.12
2022-12-09T09:00:31.131Z,73.12
2022-12-09T09:01:32.311Z,73.12
2022-12-09T09:02:31.101Z,78.75
2022-12-09T09:03:31.402Z,78.75
2022-12-09T09:04:31.617Z,78.75
2022-12-09T09:05:31.229Z,78.75
2022-12-09T09:06:31.233Z,78.75
2022-12-09T09:07:31.161Z,78.75
2022-12-09T09:08:30.932Z,78.75
2022-12-09T09:09:30.913Z,78.75
2022-12-09T09:10:31.132Z,78.75
2022-12-09T09:11:31.060Z,73.12
2022-12-09T09:12:31.161Z,78.75
2022-12-09T09:13:30.833Z,78.75
2022-12-09T09:14:31.275Z,78.75
2022-12-09T09:15:31.219Z,78.75
2022-12-09T09:16:31.342Z,78.75
2022-12-09T09:17:31.032Z,78.75
2022-12-09T09:18:30.987Z,84.38
2022-12-09T09:19:31.151Z,84.38
2022-12-09T09:20:30.937Z,84.38
2022-12-09T09:21:31.259Z,84.38
2022-12-09T09:22:30.707Z,84.38
2022-12-09T09:23:31.385Z,84.38
2022-12-09T09:24:30.822Z,84.38
2022-12-09T09:25:30.738Z,84.38
2022-12-09T09:26:31.094Z,84.38
2022-12-09T09:27:31.049Z,90.00
2022-12-09T09:28:31.832Z,90.00
2022-12-09T09:29:30.729Z,90.00
2022-12-09T09:30:30.727Z,90.00
2022-12-09T09:31:31.078Z,90.00
2022-12-09T09:32:30.656Z,90.00
2022-12-09T09:33:30.817Z,90.00
2022-12-09T09:34:30.733Z,90.00
2022-12-09T09:35:31.080Z,95.62
2022-12-09T09:36:30.926Z,95.62
2022-12-09T09:37:30.537Z,95.62
2022-12-09T09:38:30.737Z,95.62
2022-12-09T09:39:30.713Z,95.62
2022-12-09T09:40:30.530Z,95.62
2022-12-09T09:41:30.726Z,101.25
2022-12-09T09:42:30.900Z,101.25
2022-12-09T09:43:30.675Z,101.25
2022-12-09T09:44:30.627Z,101.25
2022-12-09T09:45:30.792Z,106.88
2022-12-09T09:46:30.975Z,106.88
2022-12-09T09:47:34.740Z,106.88
2022-12-09T09:48:31.890Z,106.88
2022-12-09T09:49:30.961Z,106.88
2022-12-09T09:50:30.927Z,101.25
2022-12-09T09:51:30.513Z,106.88
2022-12-09T09:52:30.550Z,106.88
2022-12-09T09:53:30.732Z,106.88
2022-12-09T09:54:30.517Z,106.88
2022-12-09T09:55:30.470Z,106.88
2022-12-09T09:56:30.677Z,106.88
2022-12-09T09:57:30.721Z,106.88
2022-12-09T09:58:30.408Z,112.50
2022-12-09T09:59:30.929Z,112.50
2022-12-09T10:00:30.883Z,106.88
2022-12-09T10:01:30.667Z,106.88
2022-12-09T10:02:30.987Z,106.88
2022-12-09T10:03:30.634Z,106.88
2022-12-09T10:04:30.701Z,106.88
2022-12-09T10:05:30.704Z,106.88
2022-12-09T10:06:30.569Z,106.88
2022-12-09T10:07:30.463Z,106.88
2022-12-09T10:08:30.463Z,106.88
2022-12-09T10:09:30.424Z,106.88
2022-12-09T10:10:30.547Z,112.50
2022-12-09T10:11:30.731Z,112.50
2022-12-09T10:12:30.600Z,112.50
2022-12-09T10:13:30.841Z,112.50
2022-12-09T10:14:30.433Z,112.50
2022-12-09T10:15:30.455Z,106.88
2022-12-09T10:16:30.729Z,106.88
2022-12-09T10:17:30.436Z,106.88
2022-12-09T10:18:30.588Z,106.88
2022-12-09T10:19:30.414Z,106.88
2022-12-09T10:20:30.599Z,112.50
2022-12-09T10:21:30.238Z,112.50
2022-12-09T10:22:30.653Z,112.50
2022-12-09T10:23:30.255Z,112.50
2022-12-09T10:24:34.136Z,112.50
2022-12-09T10:25:31.232Z,106.88
2022-12-09T10:26:30.302Z,112.50
2022-12-09T10:27:31.371Z,112.50
2022-12-09T10:28:30.032Z,112.50
2022-12-09T10:29:30.367Z,112.50
2022-12-09T10:30:36.254Z,112.50
2022-12-09T10:31:31.292Z,118.12
2022-12-09T10:32:30.613Z,118.12
2022-12-09T10:33:30.505Z,118.12
2022-12-09T10:34:30.380Z,123.75
2022-12-09T10:35:30.684Z,123.75
2022-12-09T10:36:35.346Z,123.75
2022-12-09T10:37:30.953Z,129.38
2022-12-09T10:38:30.286Z,129.38
2022-12-09T10:39:30.500Z,135.00
2022-12-09T10:40:30.304Z,140.62
2022-12-09T10:41:30.292Z,140.62
2022-12-09T10:42:34.785Z,140.62
2022-12-09T10:43:30.799Z,140.62
2022-12-09T10:44:29.825Z,146.25
2022-12-09T10:45:52.599Z,146.25
2022-12-09T10:46:30.887Z,140.62
2022-12-09T10:47:30.108Z,140.62
2022-12-09T10:48:32.982Z,140.62
2022-12-09T10:49:30.044Z,140.62
2022-12-09T10:50:29.964Z,140.62
2022-12-09T10:51:30.188Z,140.62
2022-12-09T10:52:29.730Z,140.62
2022-12-09T10:53:29.946Z,135.00
2022-12-09T10:54:29.779Z,135.00
2022-12-09T10:55:29.906Z,140.62
2022-12-09T10:56:29.896Z,146.25
2022-12-09T10:57:29.789Z,151.88
2022-12-09T10:58:29.801Z,146.25
2022-12-09T10:59:29.960Z,146.25
2022-12-09T11:00:34.616Z,146.25
2022-12-09T11:01:30.748Z,146.25
2022-12-09T11:02:30.115Z,140.62
2022-12-09T11:03:29.913Z,140.62
2022-12-09T11:04:30.031Z,135.00
2022-12-09T11:05:29.992Z,129.38
2022-12-09T11:06:29.800Z,129.38
2022-12-09T11:07:29.830Z,129.38
2022-12-09T11:08:30.183Z,129.38
2022-12-09T11:09:29.920Z,129.38
2022-12-09T11:10:30.152Z,129.38
2022-12-09T11:11:30.005Z,123.75
2022-12-09T11:12:36.222Z,123.75
2022-12-09T11:13:30.976Z,123.75
2022-12-09T11:14:30.512Z,123.75
2022-12-09T11:15:29.702Z,123.75
2022-12-09T11:16:29.620Z,123.75
2022-12-09T11:17:29.938Z,123.75
2022-12-09T11:18:30.081Z,123.75
2022-12-09T11:19:29.511Z,123.75
2022-12-09T11:20:29.710Z,123.75
2022-12-09T11:21:29.863Z,123.75
2022-12-09T11:22:29.540Z,123.75
2022-12-09T11:23:29.892Z,123.75
2022-12-09T11:24:29.494Z,123.75
2022-12-09T11:25:29.634Z,123.75
2022-12-09T11:26:29.759Z,123.75
2022-12-09T11:27:30.427Z,129.38
2022-12-09T11:28:29.515Z,129.38
2022-12-09T11:29:29.270Z,129.38
2022-12-09T11:30:29.863Z,135.00
2022-12-09T11:31:31.781Z,129.38
2022-12-09T11:32:29.412Z,135.00
2022-12-09T11:33:29.725Z,135.00
2022-12-09T11:34:31.027Z,135.00
2022-12-09T11:35:29.523Z,135.00
2022-12-09T11:36:31.052Z,135.00
2022-12-09T11:37:29.256Z,135.00
2022-12-09T11:38:29.262Z,135.00
2022-12-09T11:39:29.176Z,135.00
2022-12-09T11:40:29.166Z,135.00
2022-12-09T11:41:29.146Z,135.00
2022-12-09T11:42:29.143Z,140.62
2022-12-09T11:43:29.122Z,140.62
2022-12-09T11:44:29.126Z,140.62
2022-12-09T11:45:29.145Z,140.62
2022-12-09T11:46:29.184Z,135.00
2022-12-09T11:47:29.084Z,135.00
2022-12-09T11:48:34.996Z,135.00
2022-12-09T11:49:30.118Z,146.25
2022-12-09T11:50:29.083Z,140.62
2022-12-09T11:51:29.029Z,140.62
2022-12-09T11:52:29.027Z,140.62
2022-12-09T11:53:28.993Z,140.62
2022-12-09T11:54:29.042Z,140.62
2022-12-09T11:55:28.982Z,140.62
2022-12-09T11:56:28.954Z,140.62
2022-12-09T11:57:28.966Z,140.62
2022-12-09T11:58:28.947Z,140.62
2022-12-09T11:59:32.287Z,146.25
2022-12-09T12:00:29.991Z,146.25
2022-12-09T12:01:28.908Z,146.25
2022-12-09T12:02:28.911Z,151.88
2022-12-09T12:03:29.046Z,151.88
2022-12-09T12:04:28.884Z,146.25
2022-12-09T12:05:28.857Z,146.25
2022-12-09T12:06:28.865Z,146.25
2022-12-09T12:07:28.853Z,140.62
2022-12-09T12:08:29.022Z,140.62
2022-12-09T12:09:28.834Z,135.00
2022-12-09T12:10:28.838Z,135.00
2022-12-09T12:11:28.829Z,129.38
2022-12-09T12:12:28.793Z,129.38
2022-12-09T12:13:28.767Z,135.00
2022-12-09T12:14:28.763Z,140.62
2022-12-09T12:15:28.765Z,140.62
2022-12-09T12:16:28.774Z,140.62
2022-12-09T12:17:28.852Z,140.62
2022-12-09T12:18:28.776Z,140.62
2022-12-09T12:19:28.781Z,140.62
2022-12-09T12:20:28.691Z,140.62
2022-12-09T12:21:28.718Z,140.62
2022-12-09T12:22:28.687Z,135.00
2022-12-09T12:23:28.658Z,129.38
2022-12-09T12:24:28.654Z,129.38
2022-12-09T12:25:28.665Z,129.38
2022-12-09T12:26:28.655Z,123.75
2022-12-09T12:27:28.903Z,123.75
2022-12-09T12:28:28.616Z,123.75
2022-12-09T12:29:28.590Z,123.75
2022-12-09T12:30:28.605Z,123.75
2022-12-09T12:31:28.652Z,123.75
2022-12-09T12:32:28.577Z,123.75
2022-12-09T12:34:00.341Z,123.75
2022-12-09T12:34:34.307Z,123.75
2022-12-09T12:35:29.556Z,129.38
2022-12-09T12:36:28.518Z,129.38
2022-12-09T12:37:28.518Z,129.38
2022-12-09T12:38:28.528Z,135.00
2022-12-09T12:39:28.492Z,129.38
2022-12-09T12:40:28.483Z,129.38
2022-12-09T12:41:28.464Z,135.00
2022-12-09T12:42:28.549Z,140.62
2022-12-09T12:43:28.477Z,129.38
2022-12-09T12:44:28.428Z,129.38
2022-12-09T12:45:28.516Z,129.38
2022-12-09T12:46:28.477Z,129.38
2022-12-09T12:47:28.392Z,129.38
2022-12-09T12:48:28.474Z,129.38
2022-12-09T12:49:28.445Z,135.00
2022-12-09T12:50:28.360Z,135.00
2022-12-09T12:51:28.367Z,135.00
2022-12-09T12:52:57.598Z,135.00
2022-12-09T12:53:29.326Z,140.62
2022-12-09T12:54:28.337Z,146.25
2022-12-09T12:55:28.343Z,146.25
2022-12-09T12:56:28.281Z,151.88
2022-12-09T12:57:28.289Z,151.88
2022-12-09T12:58:28.334Z,151.88
2022-12-09T12:59:28.282Z,151.88
2022-12-09T13:00:28.237Z,157.50